Time;durP1;ratioP1;P1;durP2;ratioP2;P2;SDS_P1;SDS_P2;PMS_P1;PMS_P2;Temp;Humidity;BMP_temperature;BMP_pressure;BME280_temperature;BME280_humidity;BME280_pressure;Samples;Min_cycle;Max_cycle;Signal;HPM_P1;HPM_P2
2023/09/02 00:01:01;;;;;;;;;;;;;;;24.56;43.34;99823.03;5092104;28;19926;-76
2023/09/02 00:03:26;;;;;;;;;;;;;;;24.57;43.26;99827.34;5092219;28;19916;-75
2023/09/02 00:05:52;;;;;;;;;;;;;;;24.56;43.22;99825.72;5092442;28;19968;-77
2023/09/02 00:08:18;;;;;;;;;;;;;;;24.48;44.02;99826.19;5092299;28;19919;-77
2023/09/02 00:10:43;;;;;;;;;;;;;;;24.44;43.32;99826.97;5092178;28;19912;-77
2023/09/02 00:13:08;;;;;;;;;;;;;;;24.41;43.30;99828.31;5092091;28;20558;-77
2023/09/02 00:15:34;;;;;;;;;;;;;;;24.39;44.67;99819.66;5092027;28;19939;-78
2023/09/02 00:17:59;;;;;;;;;;;;;;;24.38;43.71;99821.53;5092133;28;19965;-78
2023/09/02 00:20:24;;;;;;;;;;;;;;;24.39;43.62;99817.78;5091990;28;19916;-79
2023/09/02 00:22:49;;;;;;;;;;;;;;;24.39;44.38;99814.25;5091878;28;19913;-78
2023/09/02 00:25:15;;;;;;;;;;;;;;;24.42;44.67;99826.41;5092352;28;19934;-78
2023/09/02 00:27:40;;;;;;;;;;;;;;;24.46;43.57;99824.81;5091935;28;19912;-77
2023/09/02 00:30:06;;;;;;;;;;;;;;;24.48;43.20;99828.88;5091831;28;20380;-78
2023/09/02 00:32:31;;;;;;;;;;;;;;;24.43;44.74;99826.16;5073910;28;19919;-78
2023/09/02 00:34:56;;;;;;;;;;;;;;;24.44;43.41;99829.66;5073760;28;19912;-77
2023/09/02 00:37:21;;;;;;;;;;;;;;;24.47;43.70;99823.75;5092000;28;19942;-78
2023/09/02 00:39:47;;;;;;;;;;;;;;;24.48;45.06;99825.38;5091840;28;19969;-77
2023/09/02 00:42:13;;;;;;;;;;;;;;;24.46;44.31;99825.63;5091933;28;19912;-78
2023/09/02 00:44:39;;;;;;;;;;;;;;;24.42;45.04;99819.13;5091818;28;19923;-78
2023/09/02 00:47:05;;;;;;;;;;;;;;;24.41;44.14;99820.22;5091840;28;19941;-77
2023/09/02 00:49:33;;;;;;;;;;;;;;;24.37;44.84;99822.63;5091649;28;19998;-78
2023/09/02 00:51:58;;;;;;;;;;;;;;;24.42;44.59;99818.31;5091644;28;19918;-76
2023/09/02 00:54:23;;;;;;;;;;;;;;;24.42;44.21;99824.53;5091909;28;19912;-77
2023/09/02 00:56:49;;;;;;;;;;;;;;;24.42;44.59;99821.84;5091720;28;20388;-76
2023/09/02 00:59:15;;;;;;;;;;;;;;;24.40;44.54;99822.09;5091896;28;20381;-76
2023/09/02 01:01:41;;;;;;;;;;;;;;;24.37;45.01;99821.81;5091479;28;19919;-77
2023/09/02 01:04:07;;;;;;;;;;;;;;;24.36;44.95;99818.31;5091522;28;19916;-78
2023/09/02 01:06:34;;;;;;;;;;;;;;;24.38;44.99;99821.53;5091541;28;20393;-77
2023/09/02 01:08:59;;;;;;;;;;;;;;;24.36;44.74;99823.69;5073612;28;19915;-77
2023/09/02 01:11:25;;;;;;;;;;;;;;;24.38;44.08;99826.13;5091600;28;19912;-77
2023/09/02 01:13:50;;;;;;;;;;;;;;;24.37;44.36;99828.03;5093182;28;19961;-76
2023/09/02 01:16:15;;;;;;;;;;;;;;;24.37;43.97;99822.63;5095675;28;19934;-77
2023/09/02 01:18:41;;;;;;;;;;;;;;;24.32;44.22;99819.09;5095435;28;19912;-78
2023/09/02 01:21:26;;;;;;;;;;;;;;;24.30;44.25;99821.22;5095349;28;20293;-78
2023/09/02 01:24:00;;;;;;;;;;;;;;;24.25;45.00;99819.28;5094473;28;20309;-79
2023/09/02 01:26:31;;;;;;;;;;;;;;;24.21;44.63;99815.47;5094979;28;19934;-78
2023/09/02 01:29:00;;;;;;;;;;;;;;;24.21;44.78;99823.56;5095176;28;19919;-78
2023/09/02 01:31:25;;;;;;;;;;;;;;;24.27;44.75;99817.16;5095108;28;19912;-78
2023/09/02 01:33:53;;;;;;;;;;;;;;;24.34;44.23;99822.34;5095375;28;19988;-78
2023/09/02 01:36:19;;;;;;;;;;;;;;;24.36;44.99;99815.59;5095360;28;19912;-77
2023/09/02 01:38:45;;;;;;;;;;;;;;;24.33;45.14;99809.91;5076856;28;19977;-78
2023/09/02 01:41:10;;;;;;;;;;;;;;;24.35;44.96;99813.16;5095110;28;19919;-78
2023/09/02 01:43:37;;;;;;;;;;;;;;;24.34;45.23;99816.94;5094925;28;20517;-78
2023/09/02 01:46:02;;;;;;;;;;;;;;;24.32;45.56;99811.00;5095041;28;20003;-78
2023/09/02 01:48:28;;;;;;;;;;;;;;;24.26;45.37;99817.41;5094835;28;20049;-78
2023/09/02 01:50:54;;;;;;;;;;;;;;;24.21;44.98;99814.66;5094829;28;19935;-78
2023/09/02 01:53:19;;;;;;;;;;;;;;;24.20;45.14;99818.44;5094576;28;20373;-77
2023/09/02 01:55:45;;;;;;;;;;;;;;;24.19;45.22;99814.13;5094478;28;20399;-78
2023/09/02 01:58:11;;;;;;;;;;;;;;;24.18;45.23;99810.59;5094675;28;19916;-78
2023/09/02 02:00:36;;;;;;;;;;;;;;;24.22;45.14;99813.59;5094476;28;20460;-77
2023/09/02 02:03:02;;;;;;;;;;;;;;;24.21;45.27;99811.97;5076160;28;19919;-79
2023/09/02 02:05:36;;;;;;;;;;;;;;;24.20;44.91;99811.16;5094361;28;19912;-78
2023/09/02 02:08:04;;;;;;;;;;;;;;;24.17;45.06;99817.06;5094493;28;19912;-78
2023/09/02 02:10:29;;;;;;;;;;;;;;;24.15;45.11;99821.09;5076269;28;19919;-78
2023/09/02 02:12:55;;;;;;;;;;;;;;;24.09;45.32;99821.06;5094378;28;19912;-78
2023/09/02 02:15:20;;;;;;;;;;;;;;;24.08;45.35;99815.94;5094476;28;19934;-77
2023/09/02 02:17:45;;;;;;;;;;;;;;;24.01;45.47;99810.78;5094227;28;19969;-78
2023/09/02 02:20:11;;;;;;;;;;;;;;;23.98;45.72;99814.00;5094094;28;19916;-77
2023/09/02 02:22:36;;;;;;;;;;;;;;;23.94;46.05;99812.06;5094080;28;20311;-78
2023/09/02 02:25:02;;;;;;;;;;;;;;;23.94;45.13;99812.06;5093048;28;19916;-78
2023/09/02 02:27:27;;;;;;;;;;;;;;;23.91;45.69;99813.41;5075752;28;20011;-76
2023/09/02 02:29:52;;;;;;;;;;;;;;;23.89;45.05;99810.16;5093927;28;19920;-78
2023/09/02 02:32:17;;;;;;;;;;;;;;;23.88;44.79;99815.81;5093902;28;19969;-77
2023/09/02 02:34:43;;;;;;;;;;;;;;;23.83;46.63;99813.06;5093684;28;19919;-78
2023/09/02 02:37:08;;;;;;;;;;;;;;;23.82;45.74;99814.94;5093720;28;19912;-75
2023/09/02 02:39:33;;;;;;;;;;;;;;;23.80;45.46;99818.97;5093951;28;19971;-77
2023/09/02 02:41:59;;;;;;;;;;;;;;;23.76;45.33;99815.94;5075736;28;19912;-76
2023/09/02 02:44:24;;;;;;;;;;;;;;;23.80;45.40;99814.41;5093600;28;19916;-78
2023/09/02 02:46:49;;;;;;;;;;;;;;;23.78;46.44;99813.81;5098744;28;19912;-78
2023/09/02 02:49:15;;;;;;;;;;;;;;;23.78;45.91;99813.81;5107674;28;19913;-78
2023/09/02 02:51:40;;;;;;;;;;;;;;;23.84;45.62;99810.13;5096836;28;19912;-78
2023/09/02 02:54:05;;;;;;;;;;;;;;;23.85;46.28;99814.44;5093197;28;20397;-78
2023/09/02 02:56:31;;;;;;;;;;;;;;;23.81;46.07;99813.31;5075198;28;20310;-78
2023/09/02 02:58:56;;;;;;;;;;;;;;;23.76;45.39;99814.06;5075302;28;19916;-77
2023/09/02 03:01:21;;;;;;;;;;;;;;;23.70;45.90;99808.91;5071674;28;19921;-77
2023/09/02 03:03:47;;;;;;;;;;;;;;;23.71;45.16;99824.81;5073065;28;19916;-77
2023/09/02 03:06:16;;;;;;;;;;;;;;;23.70;45.48;99822.38;5071847;28;19987;-78
2023/09/02 03:08:42;;;;;;;;;;;;;;;23.68;45.90;99821.81;5072931;28;19912;-77
2023/09/02 03:11:07;;;;;;;;;;;;;;;23.70;45.28;99825.88;5076762;28;20405;-77
2023/09/02 03:13:33;;;;;;;;;;;;;;;23.73;45.80;99829.94;5079090;28;19954;-78
2023/09/02 03:16:00;;;;;;;;;;;;;;;23.74;45.98;99831.56;5072871;28;19912;-77
2023/09/02 03:18:25;;;;;;;;;;;;;;;23.72;45.68;99833.72;5072939;28;19916;-78
2023/09/02 03:20:50;;;;;;;;;;;;;;;23.71;46.09;99835.59;5072830;28;19941;-78
2023/09/02 03:23:16;;;;;;;;;;;;;;;23.64;46.14;99834.19;5072804;28;19973;-78
2023/09/02 03:25:41;;;;;;;;;;;;;;;23.56;45.40;99838.16;5071561;28;19913;-78
2023/09/02 03:28:07;;;;;;;;;;;;;;;23.53;45.79;99835.94;5072681;28;20085;-77
2023/09/02 03:30:32;;;;;;;;;;;;;;;23.46;46.04;99838.84;5072887;28;19912;-78
2023/09/02 03:32:58;;;;;;;;;;;;;;;23.42;45.70;99843.13;5072675;28;19912;-76
2023/09/02 03:35:23;;;;;;;;;;;;;;;23.34;46.29;99846.28;5071429;28;19913;-78
2023/09/02 03:37:48;;;;;;;;;;;;;;;23.26;46.47;99848.63;5072406;28;19934;-78
2023/09/02 03:40:15;;;;;;;;;;;;;;;23.22;46.24;99853.69;5072464;28;19912;-77
2023/09/02 03:42:40;;;;;;;;;;;;;;;23.14;46.54;99860.34;5071052;28;19999;-77
2023/09/02 03:45:06;;;;;;;;;;;;;;;23.09;46.19;99856.78;5072216;28;20007;-78
2023/09/02 03:47:31;;;;;;;;;;;;;;;23.02;47.01;99858.84;5072360;28;20308;-78
2023/09/02 03:49:58;;;;;;;;;;;;;;;22.96;47.52;99852.56;5071058;28;20003;-78
2023/09/02 03:52:23;;;;;;;;;;;;;;;22.98;46.43;99863.91;5072248;28;19912;-77
2023/09/02 03:54:48;;;;;;;;;;;;;;;23.00;46.15;99855.56;5070882;28;19939;-76
2023/09/02 03:57:14;;;;;;;;;;;;;;;22.98;46.80;99849.63;5072287;28;19912;-78
2023/09/02 03:59:39;;;;;;;;;;;;;;;22.96;46.45;99843.69;5072057;28;20049;-78
2023/09/02 04:02:04;;;;;;;;;;;;;;;22.93;47.09;99853.06;5086424;28;19924;-77
2023/09/02 04:04:30;;;;;;;;;;;;;;;22.88;47.44;99852.19;5092318;28;19973;-77
2023/09/02 04:06:55;;;;;;;;;;;;;;;22.86;46.63;99859.72;5092270;28;20412;-77
2023/09/02 04:09:20;;;;;;;;;;;;;;;22.85;46.91;99863.47;5092206;28;20391;-79
2023/09/02 04:11:45;;;;;;;;;;;;;;;22.87;46.66;99850.56;5092114;28;19975;-77
2023/09/02 04:14:11;;;;;;;;;;;;;;;22.88;47.15;99858.41;5073908;28;19922;-79
2023/09/02 04:16:36;;;;;;;;;;;;;;;22.87;47.13;99864.84;5073943;28;19920;-78
2023/09/02 04:19:03;;;;;;;;;;;;;;;22.82;47.02;99859.41;5074000;28;19919;-77
2023/09/02 04:21:31;;;;;;;;;;;;;;;22.77;47.77;99860.13;5092118;28;20503;-78
2023/09/02 04:23:56;;;;;;;;;;;;;;;22.78;46.84;99864.44;5091879;28;19916;-77
2023/09/02 04:26:22;;;;;;;;;;;;;;;22.78;47.67;99872.53;5091837;28;19916;-79
2023/09/02 04:28:47;;;;;;;;;;;;;;;22.80;47.71;99872.31;5091955;28;19908;-77
2023/09/02 04:31:13;;;;;;;;;;;;;;;22.85;47.04;99876.94;5073824;28;20481;-78
2023/09/02 04:33:39;;;;;;;;;;;;;;;22.89;46.75;99880.75;5091985;28;19943;-78
2023/09/02 04:36:04;;;;;;;;;;;;;;;22.86;47.76;99875.88;5073852;28;20312;-78
2023/09/02 04:38:29;;;;;;;;;;;;;;;22.64;47.40;99841.66;5092024;28;19912;-79
2023/09/02 04:40:55;;;;;;;;;;;;;;;22.80;47.62;99878.50;5091775;28;19912;-77
2023/09/02 04:43:20;;;;;;;;;;;;;;;22.78;46.78;99874.41;5091681;28;19927;-78
2023/09/02 04:45:45;;;;;;;;;;;;;;;22.77;47.43;99872.78;5091800;28;19920;-78
2023/09/02 04:48:11;;;;;;;;;;;;;;;22.83;47.01;99883.38;5092387;28;19919;-77
2023/09/02 04:50:36;;;;;;;;;;;;;;;22.86;47.29;99878.56;5095968;28;19973;-79
2023/09/02 04:53:02;;;;;;;;;;;;;;;22.89;47.28;99873.50;5096264;28;19912;-79
2023/09/02 04:55:28;;;;;;;;;;;;;;;22.92;47.06;99878.38;5095936;28;19912;-77
2023/09/02 04:57:55;;;;;;;;;;;;;;;22.94;46.55;99870.03;5096224;28;19912;-76
2023/09/02 05:00:22;;;;;;;;;;;;;;;22.91;47.28;99868.66;5096032;28;19912;-76
2023/09/02 05:02:47;;;;;;;;;;;;;;;22.94;46.96;99872.72;5095754;28;19929;-77
2023/09/02 05:05:13;;;;;;;;;;;;;;;22.98;47.09;99868.47;5077319;28;19916;-78
2023/09/02 05:07:39;;;;;;;;;;;;;;;22.99;47.74;99870.91;5077466;28;19969;-77
2023/09/02 05:10:04;;;;;;;;;;;;;;;22.98;47.72;99863.91;5095748;28;19995;-78
2023/09/02 05:12:29;;;;;;;;;;;;;;;23.02;47.40;99865.03;5095500;28;20300;-79
2023/09/02 05:14:55;;;;;;;;;;;;;;;23.08;47.13;99872.13;5095458;28;19919;-77
2023/09/02 05:17:20;;;;;;;;;;;;;;;23.08;47.61;99863.25;5095470;28;19919;-78
2023/09/02 05:19:45;;;;;;;;;;;;;;;23.11;47.48;99870.81;5095579;28;19916;-78
2023/09/02 05:22:11;;;;;;;;;;;;;;;23.13;46.75;99871.38;5095454;28;19985;-76
2023/09/02 05:24:36;;;;;;;;;;;;;;;23.20;46.74;99873.88;5095261;28;20358;-77
2023/09/02 05:27:01;;;;;;;;;;;;;;;23.24;46.98;99878.50;5095442;28;19919;-78
2023/09/02 05:29:27;;;;;;;;;;;;;;;23.32;47.12;99880.75;5095224;28;19912;-77
2023/09/02 05:31:52;;;;;;;;;;;;;;;23.39;46.95;99883.25;5095141;28;19912;-78
2023/09/02 05:34:17;;;;;;;;;;;;;;;23.46;46.81;99873.06;5076961;28;19916;-77
2023/09/02 05:36:42;;;;;;;;;;;;;;;23.50;46.87;99876.06;5095070;28;19912;-78
2023/09/02 05:39:08;;;;;;;;;;;;;;;23.53;46.39;99876.38;5076889;28;19912;-75
2023/09/02 05:41:33;;;;;;;;;;;;;;;23.62;46.36;99877.56;5095154;28;19912;-79
2023/09/02 05:43:58;;;;;;;;;;;;;;;23.71;46.09;99875.22;5095022;28;19923;-75
2023/09/02 05:46:23;;;;;;;;;;;;;;;23.71;46.89;99877.91;5095041;28;19939;-77
2023/09/02 05:48:49;;;;;;;;;;;;;;;23.73;46.29;99887.38;5094911;28;19957;-77
2023/09/02 05:51:14;;;;;;;;;;;;;;;23.76;46.69;99881.47;5094728;28;19956;-77
2023/09/02 05:53:39;;;;;;;;;;;;;;;23.85;46.80;99879.16;5094716;28;19912;-77
2023/09/02 05:56:05;;;;;;;;;;;;;;;23.96;46.66;99893.53;5095044;28;19965;-78
2023/09/02 05:58:30;;;;;;;;;;;;;;;24.06;45.98;99886.34;5094741;28;19998;-78
2023/09/02 06:00:58;;;;;;;;;;;;;;;24.18;45.93;99888.03;5094618;28;19924;-78
2023/09/02 06:03:24;;;;;;;;;;;;;;;24.31;45.94;99893.03;5094513;28;19916;-78
2023/09/02 06:05:49;;;;;;;;;;;;;;;24.43;45.76;99890.13;5094446;28;19962;-77
2023/09/02 06:08:15;;;;;;;;;;;;;;;24.53;45.79;99890.22;5094548;28;19938;-78
2023/09/02 06:10:40;;;;;;;;;;;;;;;24.63;45.23;99892.97;5094568;28;19954;-78
2023/09/02 06:13:06;;;;;;;;;;;;;;;24.70;44.45;99898.94;5094390;28;20374;-77
2023/09/02 06:15:31;;;;;;;;;;;;;;;24.76;44.52;99891.69;5096093;28;19948;-77
2023/09/02 06:17:56;;;;;;;;;;;;;;;24.85;44.84;99895.50;5102167;28;19972;-77
2023/09/02 06:20:22;;;;;;;;;;;;;;;24.90;44.24;99900.94;5095992;28;19912;-78
2023/09/02 06:22:47;;;;;;;;;;;;;;;24.95;44.80;99909.06;5094089;28;19912;-77
2023/09/02 06:25:12;;;;;;;;;;;;;;;24.99;44.74;99905.59;5094125;28;20019;-78
2023/09/02 06:27:38;;;;;;;;;;;;;;;25.05;44.42;99917.25;5076012;28;19912;-77
2023/09/02 06:30:03;;;;;;;;;;;;;;;25.10;44.23;99911.88;5093946;28;19912;-78
2023/09/02 06:32:29;;;;;;;;;;;;;;;25.16;44.12;99918.91;5094078;28;19969;-77
2023/09/02 06:34:54;;;;;;;;;;;;;;;25.20;43.21;99921.91;5075899;28;20379;-78
2023/09/02 06:37:19;;;;;;;;;;;;;;;25.29;42.95;99920.34;5094133;28;19919;-77
2023/09/02 06:39:44;;;;;;;;;;;;;;;25.37;42.46;99922.53;5075796;28;19935;-77
2023/09/02 06:42:10;;;;;;;;;;;;;;;25.43;43.13;99924.16;5075703;28;19922;-77
2023/09/02 06:44:35;;;;;;;;;;;;;;;25.51;43.15;99922.81;5093719;28;19920;-79
2023/09/02 06:47:00;;;;;;;;;;;;;;;25.57;42.69;99919.88;5093797;28;20011;-78
2023/09/02 06:49:26;;;;;;;;;;;;;;;25.64;41.94;99914.19;5093836;28;19916;-78
2023/09/02 06:51:51;;;;;;;;;;;;;;;25.67;42.64;99921.81;5093793;28;20006;-78
2023/09/02 06:54:16;;;;;;;;;;;;;;;25.74;42.33;99926.97;5093633;28;19923;-78
2023/09/02 06:56:42;;;;;;;;;;;;;;;25.81;41.92;99914.78;5093968;28;19919;-77
2023/09/02 06:59:07;;;;;;;;;;;;;;;25.89;41.94;99925.06;5075453;28;19908;-76
2023/09/02 07:01:32;;;;;;;;;;;;;;;25.97;41.37;99927.25;5093467;28;19920;-78
2023/09/02 07:03:57;;;;;;;;;;;;;;;26.09;41.63;99926.19;5093488;28;20305;-76
2023/09/02 07:06:23;;;;;;;;;;;;;;;26.17;41.67;99922.94;5093402;28;19912;-79
2023/09/02 07:08:48;;;;;;;;;;;;;;;26.28;41.10;99927.28;5093530;28;20392;-76
2023/09/02 07:11:14;;;;;;;;;;;;;;;26.34;40.64;99918.09;5092757;28;19912;-79
2023/09/02 07:13:40;;;;;;;;;;;;;;;26.45;40.95;99917.00;5093394;28;19912;-78
2023/09/02 07:16:06;;;;;;;;;;;;;;;26.50;39.92;99916.16;5093245;28;19999;-78
2023/09/02 07:18:31;;;;;;;;;;;;;;;26.58;40.14;99916.41;5093087;28;20405;-78
2023/09/02 07:20:58;;;;;;;;;;;;;;;26.60;39.18;99911.53;5092922;28;19919;-78
2023/09/02 07:23:23;;;;;;;;;;;;;;;26.66;39.89;99915.06;5092861;28;20383;-78
2023/09/02 07:25:49;;;;;;;;;;;;;;;26.71;39.85;99919.63;5093145;28;19951;-78
2023/09/02 07:28:14;;;;;;;;;;;;;;;26.76;39.64;99915.06;5092958;28;19951;-78
2023/09/02 07:30:39;;;;;;;;;;;;;;;26.84;38.97;99921.81;5093220;28;19966;-77
2023/09/02 07:33:04;;;;;;;;;;;;;;;26.92;39.56;99919.34;5074823;28;19919;-77
2023/09/02 07:35:35;;;;;;;;;;;;;;;26.98;39.05;99903.09;5092854;28;19913;-78
2023/09/02 07:38:00;;;;;;;;;;;;;;;27.01;39.51;99922.31;5092774;28;19919;-76
2023/09/02 07:40:25;;;;;;;;;;;;;;;27.03;39.02;99914.72;5092545;28;19912;-76
2023/09/02 07:42:51;;;;;;;;;;;;;;;27.12;38.99;99904.09;5092459;28;19995;-76
2023/09/02 07:45:16;;;;;;;;;;;;;;;27.18;39.19;99922.78;5092773;28;20358;-76
2023/09/02 07:47:41;;;;;;;;;;;;;;;27.20;38.87;99912.47;5092591;28;19918;-77
2023/09/02 07:50:07;;;;;;;;;;;;;;;27.28;39.13;99912.97;5092861;28;19959;-76
2023/09/02 07:52:32;;;;;;;;;;;;;;;27.32;38.88;99911.31;5092575;28;19962;-77
2023/09/02 07:54:57;;;;;;;;;;;;;;;27.33;38.50;99910.22;5092357;28;19969;-77
2023/09/02 07:57:22;;;;;;;;;;;;;;;27.37;38.46;99914.81;5092275;28;19912;-76
2023/09/02 07:59:48;;;;;;;;;;;;;;;27.47;38.00;99919.38;5092447;28;19912;-75
2023/09/02 08:02:13;;;;;;;;;;;;;;;27.56;38.13;99917.72;5092281;28;19920;-77
2023/09/02 08:04:38;;;;;;;;;;;;;;;27.62;37.96;99919.34;5092468;28;19999;-77
2023/09/02 08:07:03;;;;;;;;;;;;;;;27.67;37.51;99918.50;5074252;28;19935;-78
2023/09/02 08:09:29;;;;;;;;;;;;;;;27.74;37.46;99914.38;5074061;28;19912;-76
2023/09/02 08:11:54;;;;;;;;;;;;;;;27.82;37.54;99918.38;5092061;28;19934;-78
2023/09/02 08:14:19;;;;;;;;;;;;;;;27.93;37.46;99924.56;5092072;28;19993;-75
2023/09/02 08:16:44;;;;;;;;;;;;;;;28.02;37.39;99922.84;5073890;28;19915;-77
2023/09/02 08:19:10;;;;;;;;;;;;;;;28.10;36.24;99914.09;5092123;28;19916;-78
2023/09/02 08:21:35;;;;;;;;;;;;;;;28.22;36.55;99921.88;5092162;28;19916;-78
2023/09/02 08:24:00;;;;;;;;;;;;;;;28.34;36.89;99916.94;5073002;28;19922;-78
2023/09/02 08:26:26;;;;;;;;;;;;;;;28.45;36.35;99916.53;5092142;28;19912;-77
2023/09/02 08:28:51;;;;;;;;;;;;;;;28.58;36.59;99923.19;5074367;28;19908;-78
2023/09/02 08:31:20;;;;;;;;;;;;;;;28.68;35.95;99920.38;5092012;28;19912;-77
2023/09/02 08:33:45;;;;;;;;;;;;;;;28.83;36.46;99913.94;5073743;28;19912;-77
2023/09/02 08:36:14;;;;;;;;;;;;;;;28.92;35.63;99914.16;5091937;28;20029;-75
2023/09/02 08:38:39;;;;;;;;;;;;;;;29.07;35.92;99919.44;5091617;28;19908;-76
2023/09/02 08:41:05;;;;;;;;;;;;;;;29.18;35.21;99922.84;5091725;28;19912;-76
2023/09/02 08:43:31;;;;;;;;;;;;;;;29.29;33.50;99918.88;5091596;28;19922;-76
2023/09/02 08:45:59;;;;;;;;;;;;;;;29.41;35.35;99919.25;5091746;28;19923;-76
2023/09/02 08:48:25;;;;;;;;;;;;;;;29.51;34.11;99910.16;5091706;28;19920;-76
2023/09/02 08:50:53;;;;;;;;;;;;;;;29.60;33.62;99903.75;5091705;28;20439;-76
2023/09/02 08:53:24;;;;;;;;;;;;;;;29.77;33.71;99902.47;5091763;28;19912;-78
2023/09/02 08:55:50;;;;;;;;;;;;;;;29.87;33.13;99905.03;5091462;28;19918;-75
2023/09/02 08:58:15;;;;;;;;;;;;;;;29.94;32.89;99903.53;5091707;28;20349;-75
2023/09/02 09:00:41;;;;;;;;;;;;;;;30.08;33.83;99908.25;5093187;28;19912;-75
2023/09/02 09:03:07;;;;;;;;;;;;;;;30.16;33.27;99902.13;5078343;28;19920;-76
2023/09/02 09:05:34;;;;;;;;;;;;;;;30.31;32.34;99904.56;5094162;28;19912;-77
2023/09/02 09:08:00;;;;;;;;;;;;;;;30.43;32.98;99906.81;5091389;28;19912;-76
2023/09/02 09:10:26;;;;;;;;;;;;;;;30.60;31.92;99902.44;5092067;28;20385;-77
2023/09/02 09:12:51;;;;;;;;;;;;;;;30.63;31.57;99890.94;5091757;28;19919;-77
2023/09/02 09:15:17;;;;;;;;;;;;;;;30.85;32.36;99895.69;5073461;28;19912;-76
2023/09/02 09:17:43;;;;;;;;;;;;;;;31.03;31.44;99893.13;5091735;28;19912;-77
2023/09/02 09:20:09;;;;;;;;;;;;;;;31.23;31.48;99884.56;5091375;28;19912;-77
2023/09/02 09:22:38;;;;;;;;;;;;;;;31.43;30.95;99883.31;5091333;28;19912;-78
2023/09/02 09:25:04;;;;;;;;;;;;;;;31.55;30.54;99881.66;5091670;28;19916;-77
2023/09/02 09:27:29;;;;;;;;;;;;;;;31.67;30.33;99888.47;5101124;28;19980;-76
2023/09/02 09:29:54;;;;;;;;;;;;;;;31.78;29.79;99889.88;5097703;28;19912;-77
2023/09/02 09:32:22;;;;;;;;;;;;;;;31.74;30.14;99884.22;5073403;28;19912;-78
2023/09/02 09:34:47;;;;;;;;;;;;;;;31.95;30.57;99878.25;5092887;28;20388;-77
2023/09/02 09:37:14;;;;;;;;;;;;;;;31.99;29.71;99871.91;5076725;28;19980;-77
2023/09/02 09:39:40;;;;;;;;;;;;;;;32.13;29.53;99861.69;5095040;28;20320;-77
2023/09/02 09:42:05;;;;;;;;;;;;;;;32.20;28.36;99874.91;5095127;28;19919;-77
2023/09/02 09:44:30;;;;;;;;;;;;;;;32.32;29.08;99886.09;5094985;28;19917;-78
2023/09/02 09:46:56;;;;;;;;;;;;;;;32.40;28.84;99874.38;5094943;28;19923;-78
2023/09/02 09:49:25;;;;;;;;;;;;;;;32.51;29.13;99866.72;5094974;28;20446;-79
2023/09/02 09:51:51;;;;;;;;;;;;;;;32.70;28.91;99864.56;5094818;28;19916;-77
2023/09/02 09:54:17;;;;;;;;;;;;;;;32.85;28.21;99858.69;5093464;28;19916;-77
2023/09/02 09:56:42;;;;;;;;;;;;;;;33.01;28.85;99867.22;5094680;28;19998;-77
2023/09/02 09:59:08;;;;;;;;;;;;;;;33.16;27.57;99865.97;5094799;28;20308;-78
2023/09/02 10:01:34;;;;;;;;;;;;;;;33.28;28.33;99859.84;5094523;28;20389;-76
2023/09/02 10:04:06;;;;;;;;;;;;;;;33.27;25.90;99848.09;5094537;28;19969;-77
2023/09/02 10:06:35;;;;;;;;;;;;;;;33.24;27.18;99851.47;5094259;28;19966;-77
2023/09/02 10:09:01;;;;;;;;;;;;;;;33.29;27.75;99853.25;5094451;28;19953;-77
2023/09/02 10:11:26;;;;;;;;;;;;;;;33.01;28.06;99860.97;5094609;28;19955;-77
2023/09/02 10:13:55;;;;;;;;;;;;;;;32.74;28.19;99862.00;5094401;28;19969;-78
2023/09/02 10:16:22;;;;;;;;;;;;;;;32.53;28.77;99854.34;5094324;28;19967;-77
2023/09/02 10:18:47;;;;;;;;;;;;;;;32.81;27.27;99856.91;5094322;28;19916;-75
2023/09/02 10:21:13;;;;;;;;;;;;;;;33.13;27.96;99858.41;5094035;28;19912;-77
2023/09/02 10:23:43;;;;;;;;;;;;;;;33.43;27.67;99857.47;5094031;28;19916;-78
2023/09/02 10:26:11;;;;;;;;;;;;;;;33.64;27.40;99862.31;5094187;28;20380;-77
2023/09/02 10:28:40;;;;;;;;;;;;;;;33.80;26.86;99858.75;5094109;28;20000;-77
2023/09/02 10:31:18;;;;;;;;;;;;;;;33.89;27.03;99852.50;5093919;28;19917;-77
2023/09/02 10:33:50;;;;;;;;;;;;;;;33.68;27.52;99852.34;5075895;28;19912;-77
2023/09/02 10:36:17;;;;;;;;;;;;;;;33.64;26.96;99849.44;5093808;28;19914;-78
2023/09/02 10:38:44;;;;;;;;;;;;;;;33.79;26.08;99843.44;5093724;28;19912;-78
2023/09/02 10:41:13;;;;;;;;;;;;;;;34.11;26.50;99838.56;5094185;28;19912;-78
2023/09/02 10:43:39;;;;;;;;;;;;;;;34.41;25.69;99843.03;5093867;28;19916;-77
2023/09/02 10:46:05;;;;;;;;;;;;;;;34.60;25.41;99847.28;5093042;28;20057;-77
2023/09/02 10:48:31;;;;;;;;;;;;;;;34.77;25.99;99838.97;5093762;28;20373;-77
2023/09/02 10:50:57;;;;;;;;;;;;;;;34.90;25.85;99839.88;5093517;28;20359;-78
2023/09/02 10:53:41;;;;;;;;;;;;;;;34.96;26.38;99844.06;5093607;28;19912;-76
2023/09/02 10:56:06;;;;;;;;;;;;;;;35.08;25.38;99838.66;5093618;28;20032;-76
2023/09/02 10:58:47;;;;;;;;;;;;;;;35.22;25.34;99844.66;5093470;28;19919;-77
2023/09/02 11:01:12;;;;;;;;;;;;;;;35.41;25.29;99835.19;5093139;28;19927;-78
2023/09/02 11:03:47;;;;;;;;;;;;;;;35.20;24.29;99849.69;5093330;28;19916;-77
2023/09/02 11:06:15;;;;;;;;;;;;;;;34.79;25.17;99839.44;5093460;28;19912;-78
2023/09/02 11:08:45;;;;;;;;;;;;;;;34.87;25.34;99833.13;5093291;28;19965;-77
2023/09/02 11:11:11;;;;;;;;;;;;;;;35.08;24.63;99827.66;5093192;28;20389;-76
2023/09/02 11:13:55;;;;;;;;;;;;;;;35.32;25.48;99838.81;5074992;28;19922;-76
2023/09/02 11:16:21;;;;;;;;;;;;;;;35.43;25.01;99821.91;5092976;28;19919;-75
2023/09/02 11:18:46;;;;;;;;;;;;;;;35.63;24.57;99829.31;5088809;28;20304;-75
2023/09/02 11:21:31;;;;;;;;;;;;;;;35.74;23.65;99824.22;5093003;28;20380;-77
2023/09/02 11:24:12;;;;;;;;;;;;;;;35.88;24.00;99811.81;5092834;28;19920;-76
2023/09/02 11:26:53;;;;;;;;;;;;;;;35.52;23.65;99815.19;5074750;28;19919;-77
2023/09/02 11:29:21;;;;;;;;;;;;;;;35.36;22.96;99814.22;5093089;28;20367;-77
2023/09/02 11:32:00;;;;;;;;;;;;;;;35.26;24.33;99817.34;5092831;28;20015;-77
2023/09/02 11:34:26;;;;;;;;;;;;;;;34.83;24.80;99809.41;5092838;28;20404;-78
2023/09/02 11:36:52;;;;;;;;;;;;;;;34.98;25.51;99808.84;5092863;28;20415;-78
2023/09/02 11:39:17;;;;;;;;;;;;;;;35.31;24.01;99796.00;5092848;28;19995;-76
2023/09/02 11:41:43;;;;;;;;;;;;;;;35.52;24.79;99804.22;5092770;28;19947;-77
2023/09/02 11:44:11;;;;;;;;;;;;;;;35.54;24.34;99795.63;5092850;28;19999;-78
2023/09/02 11:46:40;;;;;;;;;;;;;;;35.56;23.11;99801.59;5092884;28;20380;-76
2023/09/02 11:49:31;;;;;;;;;;;;;;;35.72;22.76;99794.34;5092781;28;19998;-77
2023/09/02 11:51:57;;;;;;;;;;;;;;;35.85;22.60;99782.28;5089378;28;19955;-79
2023/09/02 11:54:22;;;;;;;;;;;;;;;36.06;22.64;99782.19;5092463;28;19920;-76
2023/09/02 11:56:55;;;;;;;;;;;;;;;36.23;22.98;99776.47;5074072;28;20002;-76
2023/09/02 11:59:21;;;;;;;;;;;;;;;36.27;24.16;99776.56;5074070;28;19916;-77
2023/09/02 12:01:46;;;;;;;;;;;;;;;36.33;22.25;99782.69;5092125;28;20027;-75
2023/09/02 12:04:11;;;;;;;;;;;;;;;36.35;23.08;99778.44;5092040;28;20464;-76
2023/09/02 12:06:36;;;;;;;;;;;;;;;36.28;21.84;99776.25;5092260;28;19919;-77
2023/09/02 12:09:02;;;;;;;;;;;;;;;36.45;22.65;99764.25;5074137;28;19991;-77
2023/09/02 12:11:28;;;;;;;;;;;;;;;36.52;22.28;99758.97;5092413;28;19912;-78
2023/09/02 12:13:53;;;;;;;;;;;;;;;36.62;22.64;99757.69;5074396;28;19908;-76
2023/09/02 12:16:18;;;;;;;;;;;;;;;36.68;21.81;99755.50;5092110;28;19912;-78
2023/09/02 12:18:44;;;;;;;;;;;;;;;36.71;21.72;99757.56;5092521;28;19916;-77
2023/09/02 12:21:09;;;;;;;;;;;;;;;36.64;20.74;99752.66;5091988;28;19912;-78
2023/09/02 12:23:34;;;;;;;;;;;;;;;36.58;22.70;99754.03;5092102;28;19996;-77
2023/09/02 12:26:02;;;;;;;;;;;;;;;36.41;21.41;99741.31;5092236;28;19918;-77
2023/09/02 12:28:29;;;;;;;;;;;;;;;36.06;22.60;99737.41;5092294;28;19919;-77
2023/09/02 12:30:55;;;;;;;;;;;;;;;36.01;21.76;99738.44;5092491;28;19943;-76
2023/09/02 12:33:21;;;;;;;;;;;;;;;35.98;22.80;99739.91;5092188;28;19951;-78
2023/09/02 12:35:52;;;;;;;;;;;;;;;36.04;22.67;99745.19;5092182;28;19955;-77
2023/09/02 12:38:20;;;;;;;;;;;;;;;36.10;21.86;99733.63;5092128;28;19973;-78
2023/09/02 12:40:55;;;;;;;;;;;;;;;36.05;22.14;99738.56;5091754;28;19912;-77
2023/09/02 12:43:26;;;;;;;;;;;;;;;36.13;22.69;99734.88;5074028;28;20325;-78